Terminal Aerodrome Forecast
Issued by NWS Duluth, MN

Home | Current Version | Previous Version | Graphics & Text | Print | Product List | Glossary On
Versions: 1 2 3 4 5 6 7 8 9 10 11 12 13 14 15 16 17 18 19 20 21 22 23 24 25 26 27 28 29
000
FTUS43 KDLH 072327
TAFDLH
TAF
KDLH 072327Z 0800/0824 31005KT P6SM FEW060
     FM080100 VRB04KT P6SM SKC
     FM081400 24008KT 6SM HZ SCT040 SCT140
     FM081900 21009G13KT P6SM SCT050 BKN100=

USA.gov is the U.S. government's official web portal to all federal, state and local government web resources and services.